< < Back
Terminal Aerodrome Forecast


Current Version              Previous Versions:   1  2  3  4  5  6  7  8  9  

Terminal Aerodrome Forecast

510
FTUS42 KTAE 231100
TAFTLH
TAF
KTLH 231120Z 2312/2412 05006KT P6SM SKC=

Latest METAR

024
SAUS80 KWBC 241200 RRA
MTRTLH
METAR KTLH 241153Z 00000KT 10SM BKN200 11/07 A3004 RMK AO2 SLP173
T01060072 10111 20089 53009 $


USA.gov is the U.S. government's official web portal to all federal, state and local government web resources and services.